Time;durP1;ratioP1;P1;durP2;ratioP2;P2;SDS_P1;SDS_P2;PMS_P1;PMS_P2;Temp;Humidity;BMP_temperature;BMP_pressure;BME280_temperature;BME280_humidity;BME280_pressure;Samples;Min_cycle;Max_cycle;Signal;HPM_P1;HPM_P2
2021/05/17 00:02:08;;;;;;;4.10;1.00;;;;;;;;;;5099099;28;20213;-71
2021/05/17 00:04:36;;;;;;;3.80;0.87;;;;;;;;;;5099257;28;20293;-71
2021/05/17 00:07:05;;;;;;;3.17;1.20;;;;;;;;;;5099184;28;20749;-72
2021/05/17 00:09:32;;;;;;;2.47;0.87;;;;;;;;;;5099560;28;20314;-70
2021/05/17 00:12:00;;;;;;;2.63;1.10;;;;;;;;;;5112709;28;20629;-72
2021/05/17 00:14:29;;;;;;;3.93;1.10;;;;;;;;;;5119260;28;20231;-71
2021/05/17 00:16:58;;;;;;;5.77;1.40;;;;;;;;;;5119422;28;20273;-71
2021/05/17 00:19:26;;;;;;;3.30;1.07;;;;;;;;;;5119235;28;20227;-71
2021/05/17 00:21:53;;;;;;;4.33;1.10;;;;;;;;;;5119309;28;20232;-71
2021/05/17 00:24:21;;;;;;;4.57;1.00;;;;;;;;;;5119305;28;20271;-71
2021/05/17 00:26:49;;;;;;;3.30;1.10;;;;;;;;;;5118841;28;20211;-71
2021/05/17 00:29:17;;;;;;;3.40;1.43;;;;;;;;;;5118946;28;20734;-70
2021/05/17 00:31:45;;;;;;;2.50;0.90;;;;;;;;;;5119169;28;20292;-71
2021/05/17 00:34:13;;;;;;;4.87;1.60;;;;;;;;;;5105512;28;20284;-71
2021/05/17 00:36:41;;;;;;;2.43;1.23;;;;;;;;;;5102002;28;20688;-71
2021/05/17 00:39:10;;;;;;;3.63;1.20;;;;;;;;;;5098588;28;20733;-71
2021/05/17 00:41:38;;;;;;;3.23;1.27;;;;;;;;;;5099145;28;20288;-71
2021/05/17 00:44:06;;;;;;;6.10;1.60;;;;;;;;;;5100348;28;20219;-71
2021/05/17 00:46:33;;;;;;;2.50;0.90;;;;;;;;;;5105270;28;20607;-71
2021/05/17 00:49:01;;;;;;;3.23;1.10;;;;;;;;;;5098573;28;20236;-71
2021/05/17 00:51:32;;;;;;;2.83;1.00;;;;;;;;;;5098168;28;20237;-71
2021/05/17 00:54:00;;;;;;;2.50;1.00;;;;;;;;;;5098211;28;20209;-71
2021/05/17 00:56:28;;;;;;;2.63;1.00;;;;;;;;;;5098003;28;20236;-71
2021/05/17 00:58:55;;;;;;;4.40;0.80;;;;;;;;;;5098142;28;20236;-71
2021/05/17 01:01:23;;;;;;;2.60;1.00;;;;;;;;;;5105425;28;20663;-71
2021/05/17 01:03:50;;;;;;;2.73;1.00;;;;;;;;;;5118845;28;20284;-70
2021/05/17 01:06:18;;;;;;;5.17;1.07;;;;;;;;;;5118615;28;20256;-71
2021/05/17 01:08:50;;;;;;;3.33;1.20;;;;;;;;;;5118566;28;20225;-71
2021/05/17 01:11:18;;;;;;;3.00;0.90;;;;;;;;;;5117898;28;20232;-71
2021/05/17 01:13:45;;;;;;;3.13;1.00;;;;;;;;;;5118718;28;20287;-70
2021/05/17 01:16:13;;;;;;;2.00;0.83;;;;;;;;;;5118648;28;20263;-71
2021/05/17 01:18:41;;;;;;;2.70;0.90;;;;;;;;;;5118465;28;20235;-70
2021/05/17 01:21:08;;;;;;;4.33;1.57;;;;;;;;;;5118558;28;20204;-70
2021/05/17 01:23:49;;;;;;;5.30;1.07;;;;;;;;;;5118793;28;20212;-71
2021/05/17 01:26:17;;;;;;;5.93;1.00;;;;;;;;;;5117867;28;20657;-70
2021/05/17 01:28:45;;;;;;;3.63;1.00;;;;;;;;;;5122349;28;20746;-71
2021/05/17 01:31:12;;;;;;;2.97;1.00;;;;;;;;;;5122515;28;20620;-69
2021/05/17 01:33:41;;;;;;;2.10;0.87;;;;;;;;;;5112600;27;20209;-70
2021/05/17 01:36:09;;;;;;;6.37;1.10;;;;;;;;;;5108053;28;20612;-69
2021/05/17 01:38:38;;;;;;;5.87;1.73;;;;;;;;;;5101967;28;20748;-70
2021/05/17 01:41:08;;;;;;;2.40;0.73;;;;;;;;;;5101539;28;20756;-70
2021/05/17 01:43:38;;;;;;;1.33;0.87;;;;;;;;;;5108854;28;20287;-70
2021/05/17 01:46:07;;;;;;;3.13;0.83;;;;;;;;;;5121517;28;20246;-69
2021/05/17 01:48:36;;;;;;;2.57;1.20;;;;;;;;;;5102002;28;20253;-68
2021/05/17 01:51:06;;;;;;;2.67;1.10;;;;;;;;;;5101607;28;20606;-68
2021/05/17 01:53:36;;;;;;;4.17;0.90;;;;;;;;;;5101654;28;20228;-70
2021/05/17 01:56:05;;;;;;;1.47;0.80;;;;;;;;;;5101425;28;20752;-70
2021/05/17 01:58:32;;;;;;;4.80;0.73;;;;;;;;;;5101732;28;20240;-70
2021/05/17 02:01:00;;;;;;;3.77;0.80;;;;;;;;;;5101718;28;20303;-69
2021/05/17 02:03:27;;;;;;;134.87;65.30;;;;;;;;;;5101450;28;20553;-70
2021/05/17 02:05:55;;;;;;;398.40;184.37;;;;;;;;;;5101301;28;20633;-68
2021/05/17 02:08:23;;;;;;;23.90;13.57;;;;;;;;;;5101587;28;20216;-70
2021/05/17 02:10:50;;;;;;;5.70;2.43;;;;;;;;;;5104937;28;20300;-69
2021/05/17 02:13:19;;;;;;;2.67;1.10;;;;;;;;;;5121550;28;20645;-70
2021/05/17 02:15:48;;;;;;;4.50;1.10;;;;;;;;;;5121739;28;20228;-68
2021/05/17 02:18:17;;;;;;;3.47;1.00;;;;;;;;;;5121612;28;20571;-68
2021/05/17 02:20:45;;;;;;;3.07;1.00;;;;;;;;;;5121689;28;20212;-69
2021/05/17 02:23:14;;;;;;;6.47;1.00;;;;;;;;;;5121685;28;20208;-68
2021/05/17 02:25:42;;;;;;;4.93;1.30;;;;;;;;;;5121212;28;20307;-69
2021/05/17 02:28:10;;;;;;;2.50;1.07;;;;;;;;;;5121305;28;20232;-68
2021/05/17 02:30:39;;;;;;;3.10;1.17;;;;;;;;;;5121201;28;20316;-69
2021/05/17 02:33:08;;;;;;;3.47;1.47;;;;;;;;;;5116319;27;20210;-69
2021/05/17 02:35:35;;;;;;;3.27;1.30;;;;;;;;;;5106297;28;20291;-68
2021/05/17 02:38:04;;;;;;;5.77;1.10;;;;;;;;;;5101043;28;20624;-70
2021/05/17 02:40:32;;;;;;;4.50;1.10;;;;;;;;;;5100611;28;20271;-68
2021/05/17 02:43:00;;;;;;;3.30;1.10;;;;;;;;;;5100530;28;20729;-69
2021/05/17 02:45:28;;;;;;;3.00;1.30;;;;;;;;;;5102921;28;20253;-70
2021/05/17 02:47:57;;;;;;;3.20;1.00;;;;;;;;;;5105961;28;20211;-71
2021/05/17 02:50:33;;;;;;;3.83;0.73;;;;;;;;;;5100900;28;20659;-71
2021/05/17 02:53:01;;;;;;;3.93;1.70;;;;;;;;;;5100771;28;20258;-71
2021/05/17 02:55:29;;;;;;;39.17;26.60;;;;;;;;;;5100058;28;20249;-70
2021/05/17 02:58:07;;;;;;;10.30;4.40;;;;;;;;;;5100807;28;20292;-70
2021/05/17 03:00:36;;;;;;;3.60;1.40;;;;;;;;;;5100373;28;20363;-70
2021/05/17 03:03:05;;;;;;;5.53;1.40;;;;;;;;;;5100282;28;20296;-70
2021/05/17 03:05:34;;;;;;;4.63;1.30;;;;;;;;;;5100462;28;20316;-71
2021/05/17 03:08:03;;;;;;;3.70;1.00;;;;;;;;;;5100359;28;20210;-70
2021/05/17 03:10:31;;;;;;;3.53;1.20;;;;;;;;;;5101272;28;20264;-71
2021/05/17 03:13:01;;;;;;;7.83;1.60;;;;;;;;;;5121157;28;20315;-70
2021/05/17 03:15:29;;;;;;;3.23;1.50;;;;;;;;;;5120654;28;20296;-72
2021/05/17 03:17:57;;;;;;;3.00;0.90;;;;;;;;;;5120795;28;20205;-71
2021/05/17 03:20:26;;;;;;;4.13;1.07;;;;;;;;;;5120624;28;20336;-71
2021/05/17 03:22:54;;;;;;;3.67;1.57;;;;;;;;;;5120948;28;20208;-71
2021/05/17 03:25:26;;;;;;;5.13;1.40;;;;;;;;;;5120170;28;20399;-71
2021/05/17 03:27:53;;;;;;;8.30;1.13;;;;;;;;;;5120477;28;20213;-72
2021/05/17 03:30:21;;;;;;;4.53;1.27;;;;;;;;;;5120289;28;20260;-72
2021/05/17 03:32:49;;;;;;;2.17;1.07;;;;;;;;;;5117384;28;20729;-72
2021/05/17 03:35:17;;;;;;;2.40;1.03;;;;;;;;;;5104601;28;20350;-71
2021/05/17 03:37:46;;;;;;;1.90;0.90;;;;;;;;;;5099920;28;20297;-71
2021/05/17 03:40:14;;;;;;;3.57;1.10;;;;;;;;;;5099094;28;20636;-71
2021/05/17 03:42:41;;;;;;;5.73;1.97;;;;;;;;;;5099404;28;20312;-71
2021/05/17 03:45:11;;;;;;;2.97;1.37;;;;;;;;;;5099757;28;20248;-71
2021/05/17 03:47:38;;;;;;;5.27;1.50;;;;;;;;;;5099697;28;20635;-71
2021/05/17 03:50:07;;;;;;;3.73;1.13;;;;;;;;;;5098714;28;20251;-71
2021/05/17 03:52:35;;;;;;;1.93;1.37;;;;;;;;;;5099535;28;20208;-72
2021/05/17 03:55:04;;;;;;;3.73;0.90;;;;;;;;;;5098827;28;21034;-71
2021/05/17 03:57:31;;;;;;;1.40;1.23;;;;;;;;;;5100815;28;20241;-71
2021/05/17 03:59:59;;;;;;;3.70;1.00;;;;;;;;;;5119668;28;20232;-71
2021/05/17 04:02:26;;;;;;;4.83;1.30;;;;;;;;;;5119539;28;20264;-71
2021/05/17 04:05:02;;;;;;;2.53;1.13;;;;;;;;;;5119198;28;20652;-71
2021/05/17 04:13:19;;;;;;;2.50;1.20;;;;;;;;;;5105069;28;20564;-71
2021/05/17 04:15:47;;;;;;;3.23;0.93;;;;;;;;;;5119547;28;20220;-71
2021/05/17 04:18:16;;;;;;;2.30;1.30;;;;;;;;;;5119096;28;20300;-71
2021/05/17 04:20:44;;;;;;;6.17;1.30;;;;;;;;;;5119232;28;20225;-71
2021/05/17 04:23:11;;;;;;;4.67;1.30;;;;;;;;;;5098607;28;20249;-71
2021/05/17 04:25:40;;;;;;;3.90;1.07;;;;;;;;;;5098189;28;20225;-71
2021/05/17 04:28:07;;;;;;;2.90;1.27;;;;;;;;;;5098869;28;20240;-71
2021/05/17 04:30:35;;;;;;;3.50;0.90;;;;;;;;;;5098392;28;20261;-70
2021/05/17 04:33:02;;;;;;;5.07;1.13;;;;;;;;;;5098866;28;20297;-70
2021/05/17 04:35:30;;;;;;;1.93;0.90;;;;;;;;;;5104163;28;20296;-71
2021/05/17 04:37:57;;;;;;;2.37;1.20;;;;;;;;;;5098787;28;20233;-71
2021/05/17 04:40:25;;;;;;;3.40;1.00;;;;;;;;;;5098065;28;20256;-71
2021/05/17 04:42:53;;;;;;;6.73;2.00;;;;;;;;;;5099012;28;20272;-71
2021/05/17 04:45:23;;;;;;;2.93;1.20;;;;;;;;;;5105180;28;20282;-72
2021/05/17 04:47:51;;;;;;;4.67;1.20;;;;;;;;;;5104363;28;20232;-71
2021/05/17 04:50:19;;;;;;;4.73;1.27;;;;;;;;;;5099087;28;20229;-72
2021/05/17 04:52:46;;;;;;;3.27;1.20;;;;;;;;;;5098737;28;20614;-72
2021/05/17 04:55:14;;;;;;;2.23;0.97;;;;;;;;;;5097816;28;20304;-71
2021/05/17 04:57:42;;;;;;;4.60;1.00;;;;;;;;;;5098271;28;20236;-72
2021/05/17 05:00:11;;;;;;;4.03;1.60;;;;;;;;;;5098624;28;20698;-71
2021/05/17 05:02:39;;;;;;;2.13;1.57;;;;;;;;;;5097289;28;20630;-72
2021/05/17 05:05:07;;;;;;;4.73;1.10;;;;;;;;;;5098080;28;20785;-72
2021/05/17 05:07:35;;;;;;;1.93;1.50;;;;;;;;;;5097923;28;20284;-72
2021/05/17 05:10:03;;;;;;;3.33;1.10;;;;;;;;;;5097617;28;20221;-73
2021/05/17 05:12:31;;;;;;;3.77;1.17;;;;;;;;;;5116197;28;20235;-71
2021/05/17 05:14:58;;;;;;;3.80;1.43;;;;;;;;;;5099427;28;20312;-73
2021/05/17 05:17:27;;;;;;;4.57;1.20;;;;;;;;;;5097764;28;20240;-72
2021/05/17 05:19:54;;;;;;;2.97;1.27;;;;;;;;;;5098119;28;20198;-72
2021/05/17 05:22:23;;;;;;;76.67;38.27;;;;;;;;;;5097960;28;20292;-67
2021/05/17 05:24:53;;;;;;;138.53;46.17;;;;;;;;;;5097430;28;20651;-69
2021/05/17 05:27:24;;;;;;;9.70;4.93;;;;;;;;;;5097861;28;20289;-71
2021/05/17 05:30:00;;;;;;;5.17;1.50;;;;;;;;;;5098029;28;20229;-77
2021/05/17 05:32:33;;;;;;;4.10;1.63;;;;;;;;;;5098007;28;20201;-73
2021/05/17 05:35:00;;;;;;;3.63;1.20;;;;;;;;;;5103124;28;20680;-73
2021/05/17 05:37:28;;;;;;;6.37;1.30;;;;;;;;;;5097868;28;20237;-73
2021/05/17 05:39:55;;;;;;;2.17;1.30;;;;;;;;;;5109920;28;20197;-73
2021/05/17 05:42:24;;;;;;;3.27;1.20;;;;;;;;;;5101794;28;20227;-73
2021/05/17 05:44:52;;;;;;;7.30;1.40;;;;;;;;;;5096977;28;20245;-73
2021/05/17 05:47:19;;;;;;;5.33;1.47;;;;;;;;;;5108893;28;20736;-73
2021/05/17 05:49:48;;;;;;;3.50;1.13;;;;;;;;;;5097537;28;20269;-73
2021/05/17 05:52:16;;;;;;;3.23;1.10;;;;;;;;;;5104167;28;20288;-73
2021/05/17 05:54:44;;;;;;;2.00;0.90;;;;;;;;;;5117314;28;20229;-73
2021/05/17 05:57:12;;;;;;;3.10;1.40;;;;;;;;;;5113841;28;20649;-73
2021/05/17 05:59:39;;;;;;;1.97;1.33;;;;;;;;;;5097165;28;20757;-72
2021/05/17 06:02:06;;;;;;;5.13;1.43;;;;;;;;;;5097358;28;20273;-73
2021/05/17 06:04:34;;;;;;;5.83;1.43;;;;;;;;;;5097183;28;20803;-73
2021/05/17 06:07:03;;;;;;;5.10;1.10;;;;;;;;;;5097330;28;20237;-72
2021/05/17 06:09:31;;;;;;;3.17;0.90;;;;;;;;;;5097166;28;20206;-72
2021/05/17 06:11:59;;;;;;;1.70;1.20;;;;;;;;;;5101487;28;20247;-73
2021/05/17 06:14:27;;;;;;;6.20;1.33;;;;;;;;;;5100812;28;20328;-72
2021/05/17 06:16:55;;;;;;;3.90;1.13;;;;;;;;;;5100838;28;20209;-72
2021/05/17 06:19:23;;;;;;;4.20;1.10;;;;;;;;;;5100730;28;20202;-73
2021/05/17 06:21:51;;;;;;;4.40;1.43;;;;;;;;;;5100986;28;20261;-74
2021/05/17 06:24:21;;;;;;;3.87;1.43;;;;;;;;;;5100526;28;20650;-73
2021/05/17 06:26:48;;;;;;;4.47;1.10;;;;;;;;;;5100324;28;20233;-73
2021/05/17 06:29:16;;;;;;;2.17;0.93;;;;;;;;;;5107007;28;20193;-73
2021/05/17 06:31:45;;;;;;;4.30;1.30;;;;;;;;;;5121282;28;20224;-73
2021/05/17 06:34:13;;;;;;;2.43;0.90;;;;;;;;;;5108069;28;20516;-73
2021/05/17 06:36:40;;;;;;;3.10;1.30;;;;;;;;;;5107406;28;20213;-73
2021/05/17 06:39:09;;;;;;;0.87;0.60;;;;;;;;;;5100384;28;20271;-73
2021/05/17 06:41:38;;;;;;;2.27;0.83;;;;;;;;;;5100125;28;20284;-73
2021/05/17 06:44:06;;;;;;;3.30;0.93;;;;;;;;;;5100444;28;20273;-74
2021/05/17 06:46:33;;;;;;;2.47;0.77;;;;;;;;;;5110297;28;20263;-74
2021/05/17 06:49:01;;;;;;;1.53;0.80;;;;;;;;;;5100598;28;20712;-73
2021/05/17 06:51:29;;;;;;;2.33;0.90;;;;;;;;;;5100253;28;20392;-74
2021/05/17 06:53:58;;;;;;;3.67;1.10;;;;;;;;;;5100184;28;20612;-74
2021/05/17 06:56:29;;;;;;;1.73;0.80;;;;;;;;;;5099721;28;20212;-73
2021/05/17 06:58:59;;;;;;;1.93;0.90;;;;;;;;;;5100361;28;20208;-73
2021/05/17 07:01:27;;;;;;;2.70;0.80;;;;;;;;;;5099732;28;20611;-74
2021/05/17 07:03:55;;;;;;;7.20;0.73;;;;;;;;;;5100223;28;20265;-73
2021/05/17 07:06:25;;;;;;;3.80;1.20;;;;;;;;;;5100021;28;20234;-72
2021/05/17 07:11:49;;;;;;;3.30;0.80;;;;;;;;;;5110601;28;20255;-73
2021/05/17 07:14:17;;;;;;;5.00;1.13;;;;;;;;;;5120133;28;20688;-72
2021/05/17 07:16:45;;;;;;;2.77;0.87;;;;;;;;;;5120234;28;20204;-72
2021/05/17 07:19:13;;;;;;;1.27;0.50;;;;;;;;;;5120155;28;20287;-73
2021/05/17 07:24:27;;;;;;;2.77;0.70;;;;;;;;;;5118881;27;20312;-72
2021/05/17 07:26:54;;;;;;;4.23;1.20;;;;;;;;;;5119675;28;20244;-73
2021/05/17 07:29:23;;;;;;;5.17;1.60;;;;;;;;;;5112802;28;20281;-74
2021/05/17 07:31:51;;;;;;;1.47;0.87;;;;;;;;;;5099395;28;20333;-72
2021/05/17 07:34:18;;;;;;;1.93;1.10;;;;;;;;;;5101243;28;20216;-71
2021/05/17 07:36:47;;;;;;;4.27;1.10;;;;;;;;;;5101931;28;20308;-71
2021/05/17 07:39:15;;;;;;;4.10;0.90;;;;;;;;;;5099298;28;20259;-72
2021/05/17 07:41:43;;;;;;;2.73;0.77;;;;;;;;;;5098795;28;20292;-72
2021/05/17 07:44:10;;;;;;;2.60;1.00;;;;;;;;;;5099422;28;20248;-72
2021/05/17 07:46:39;;;;;;;7.40;1.50;;;;;;;;;;5106158;28;20233;-72
2021/05/17 07:49:10;;;;;;;4.43;1.00;;;;;;;;;;5099387;28;20263;-72
2021/05/17 07:51:39;;;;;;;2.50;1.00;;;;;;;;;;5098995;28;20291;-72
2021/05/17 07:54:07;;;;;;;4.40;1.00;;;;;;;;;;5098815;28;20201;-72
2021/05/17 07:56:34;;;;;;;1.80;0.70;;;;;;;;;;5096973;28;20292;-72
2021/05/17 07:59:02;;;;;;;2.47;1.30;;;;;;;;;;5097063;28;20568;-72
2021/05/17 08:01:30;;;;;;;4.30;0.90;;;;;;;;;;5098061;28;20649;-72
2021/05/17 08:03:58;;;;;;;2.63;1.03;;;;;;;;;;5098069;28;20792;-72
2021/05/17 08:06:26;;;;;;;1.90;0.70;;;;;;;;;;5098549;28;20251;-72
2021/05/17 08:08:54;;;;;;;2.43;1.00;;;;;;;;;;5098528;28;20617;-72
2021/05/17 08:11:21;;;;;;;1.17;0.50;;;;;;;;;;5106661;28;20303;-71
2021/05/17 08:13:49;;;;;;;1.53;0.70;;;;;;;;;;5118509;27;20244;-71
2021/05/17 08:16:20;;;;;;;1.13;0.50;;;;;;;;;;5117890;28;20254;-72
2021/05/17 08:18:49;;;;;;;2.23;0.80;;;;;;;;;;5119121;28;20254;-72
2021/05/17 08:21:17;;;;;;;2.13;0.70;;;;;;;;;;5118905;28;20224;-72
2021/05/17 08:23:45;;;;;;;3.23;1.17;;;;;;;;;;5118744;28;20235;-72
2021/05/17 08:26:12;;;;;;;3.97;0.90;;;;;;;;;;5118699;28;20349;-72
2021/05/17 08:28:41;;;;;;;3.50;0.80;;;;;;;;;;5117592;28;20280;-72
2021/05/17 08:31:11;;;;;;;3.83;0.90;;;;;;;;;;5098386;28;20314;-72
2021/05/17 08:33:39;;;;;;;2.47;0.80;;;;;;;;;;5098290;28;20205;-72
2021/05/17 08:36:07;;;;;;;3.83;0.70;;;;;;;;;;5102837;28;20225;-71
2021/05/17 08:38:36;;;;;;;4.17;0.80;;;;;;;;;;5098120;28;20641;-72
2021/05/17 08:41:04;;;;;;;1.87;0.70;;;;;;;;;;5097862;28;20247;-66
2021/05/17 08:43:32;;;;;;;544.20;360.37;;;;;;;;;;5098181;28;20379;-72
2021/05/17 08:45:59;;;;;;;879.53;288.13;;;;;;;;;;5104735;28;20315;-73
2021/05/17 08:48:27;;;;;;;972.53;571.40;;;;;;;;;;5098318;28;20241;-73
2021/05/17 08:50:54;;;;;;;182.13;91.57;;;;;;;;;;5098210;28;20316;-72
2021/05/17 08:53:22;;;;;;;8.97;8.07;;;;;;;;;;5104891;28;20587;-73
2021/05/17 08:55:50;;;;;;;1.80;1.63;;;;;;;;;;5117826;28;20328;-72
2021/05/17 08:58:19;;;;;;;17.53;3.73;;;;;;;;;;5118168;28;20636;-70
2021/05/17 09:00:46;;;;;;;4.60;1.80;;;;;;;;;;5114277;28;20699;-70
2021/05/17 09:03:14;;;;;;;3.60;1.70;;;;;;;;;;5106415;28;20672;-70
2021/05/17 09:05:47;;;;;;;3.40;1.40;;;;;;;;;;5102769;28;20229;-70
2021/05/17 09:08:15;;;;;;;4.97;2.20;;;;;;;;;;5104560;28;20209;-71
2021/05/17 09:10:43;;;;;;;3.87;1.50;;;;;;;;;;5099042;28;20200;-71
2021/05/17 09:13:12;;;;;;;6.37;1.63;;;;;;;;;;5117765;28;20679;-70
2021/05/17 09:15:40;;;;;;;3.67;1.77;;;;;;;;;;5117810;28;20224;-70
2021/05/17 09:18:10;;;;;;;2.33;1.60;;;;;;;;;;5106023;28;20228;-70
2021/05/17 09:20:40;;;;;;;3.13;1.30;;;;;;;;;;5097680;28;20205;-70
2021/05/17 09:23:09;;;;;;;5.50;1.40;;;;;;;;;;5097354;28;20213;-70
2021/05/17 09:25:37;;;;;;;2.80;1.47;;;;;;;;;;5096988;28;20225;-71
2021/05/17 09:28:05;;;;;;;2.60;1.50;;;;;;;;;;5096969;28;20251;-71
2021/05/17 09:30:47;;;;;;;1.20;0.83;;;;;;;;;;5096761;28;20266;-69
2021/05/17 09:33:15;;;;;;;2.57;0.70;;;;;;;;;;5096894;28;20224;-72
2021/05/17 09:35:44;;;;;;;3.00;0.40;;;;;;;;;;5102500;28;20316;-72
2021/05/17 09:38:18;;;;;;;3.83;0.63;;;;;;;;;;5097212;28;20693;-72
2021/05/17 09:40:46;;;;;;;2.53;0.53;;;;;;;;;;5097085;28;20289;-72
2021/05/17 09:43:16;;;;;;;1.33;0.80;;;;;;;;;;5097075;28;20240;-72
2021/05/17 09:45:45;;;;;;;4.77;0.60;;;;;;;;;;5101822;28;20252;-72
2021/05/17 09:48:14;;;;;;;7.37;1.03;;;;;;;;;;5100996;28;20232;-72
2021/05/17 09:50:55;;;;;;;0.77;0.50;;;;;;;;;;5101366;28;20288;-72
2021/05/17 09:53:23;;;;;;;1.37;0.60;;;;;;;;;;5108366;28;20288;-72
2021/05/17 09:55:50;;;;;;;1.23;0.80;;;;;;;;;;5121035;28;20288;-73
2021/05/17 09:58:42;;;;;;;1.67;0.57;;;;;;;;;;5121218;28;20270;-72
2021/05/17 10:01:11;;;;;;;1.60;0.50;;;;;;;;;;5095469;28;20652;-70
2021/05/17 10:03:40;;;;;;;3.47;0.60;;;;;;;;;;5116139;28;20291;-72
2021/05/17 10:06:09;;;;;;;2.60;0.87;;;;;;;;;;5121322;28;20260;-73
2021/05/17 10:08:37;;;;;;;3.53;0.80;;;;;;;;;;5111085;28;20201;-72
2021/05/17 10:11:05;;;;;;;3.97;0.63;;;;;;;;;;5107020;28;20236;-72
2021/05/17 10:13:34;;;;;;;1.23;0.70;;;;;;;;;;5108787;28;20232;-71
2021/05/17 10:16:03;;;;;;;5.17;0.93;;;;;;;;;;5108701;28;20223;-71
2021/05/17 10:18:31;;;;;;;1.53;0.70;;;;;;;;;;5108608;28;20280;-72
2021/05/17 10:21:00;;;;;;;5.13;0.80;;;;;;;;;;5108546;28;20636;-71
2021/05/17 10:23:28;;;;;;;2.90;0.83;;;;;;;;;;5108503;28;20280;-72
2021/05/17 10:26:05;;;;;;;2.33;0.60;;;;;;;;;;5110492;28;20213;-72
2021/05/17 10:28:33;;;;;;;2.10;0.57;;;;;;;;;;5112503;28;20378;-71
2021/05/17 10:31:12;;;;;;;1.47;0.70;;;;;;;;;;5108882;28;20604;-71
2021/05/17 10:33:39;;;;;;;1.07;0.50;;;;;;;;;;5106393;28;20623;-71
2021/05/17 10:36:08;;;;;;;2.30;0.90;;;;;;;;;;5109887;28;20244;-72
2021/05/17 10:38:41;;;;;;;2.00;0.60;;;;;;;;;;5111057;28;20193;-73
2021/05/17 10:41:33;;;;;;;3.73;1.00;;;;;;;;;;5109483;27;20223;-72
2021/05/17 10:44:07;;;;;;;1.07;0.40;;;;;;;;;;5109117;28;20641;-72
2021/05/17 10:46:40;;;;;;;2.77;0.80;;;;;;;;;;5108550;28;20307;-72
2021/05/17 10:49:29;;;;;;;1.00;0.40;;;;;;;;;;5106996;28;20208;-72
2021/05/17 10:52:18;;;;;;;2.60;0.80;;;;;;;;;;5109127;28;20243;-72
2021/05/17 10:54:46;;;;;;;1.60;1.50;;;;;;;;;;5107256;28;20304;-69
2021/05/17 10:57:18;;;;;;;1.20;1.10;;;;;;;;;;5104929;28;20284;-70
2021/05/17 11:02:34;;;;;;;3.43;0.93;;;;;;;;;;5109903;28;20719;-71
2021/05/17 11:05:03;;;;;;;2.53;1.00;;;;;;;;;;5100981;28;20257;-70
2021/05/17 11:07:32;;;;;;;2.30;1.03;;;;;;;;;;5099849;28;20293;-70
2021/05/17 11:10:10;;;;;;;1.53;0.80;;;;;;;;;;5099651;28;20209;-70
2021/05/17 11:12:56;;;;;;;0.80;0.80;;;;;;;;;;5103653;28;20280;-69
2021/05/17 11:15:41;;;;;;;2.67;0.80;;;;;;;;;;5099636;28;20284;-69
2021/05/17 11:18:33;;;;;;;1.27;0.70;;;;;;;;;;5105857;28;20561;-70
2021/05/17 11:21:05;;;;;;;2.07;0.60;;;;;;;;;;5096889;28;20223;-69
2021/05/17 11:23:47;;;;;;;0.70;0.50;;;;;;;;;;5102072;28;20688;-72
2021/05/17 11:26:20;;;;;;;0.63;0.50;;;;;;;;;;5098931;28;20257;-74
2021/05/17 11:28:54;;;;;;;0.63;0.27;;;;;;;;;;5101609;28;20240;-73
2021/05/17 11:31:35;;;;;;;0.80;0.50;;;;;;;;;;5119742;28;20201;-73
2021/05/17 11:34:07;;;;;;;1.33;0.70;;;;;;;;;;5106289;27;20209;-73
2021/05/17 11:36:39;;;;;;;3.10;0.87;;;;;;;;;;5107063;28;20196;-69
2021/05/17 11:39:14;;;;;;;1.33;1.03;;;;;;;;;;5106847;28;20229;-71
2021/05/17 11:41:44;;;;;;;0.90;0.60;;;;;;;;;;5098932;28;20284;-70
2021/05/17 11:44:12;;;;;;;1.93;0.70;;;;;;;;;;5098813;28;20285;-69
2021/05/17 11:46:41;;;;;;;2.10;0.60;;;;;;;;;;5109264;28;20340;-69
2021/05/17 11:49:11;;;;;;;1.30;0.73;;;;;;;;;;5098894;28;20626;-69
2021/05/17 11:51:39;;;;;;;1.77;0.60;;;;;;;;;;5098698;28;20760;-69
2021/05/17 11:54:06;;;;;;;2.00;0.60;;;;;;;;;;5115952;28;20292;-72
2021/05/17 11:56:36;;;;;;;1.27;0.50;;;;;;;;;;5118880;28;20216;-72
2021/05/17 11:59:11;;;;;;;3.40;0.93;;;;;;;;;;5118980;27;20208;-73
2021/05/17 12:01:40;;;;;;;0.50;0.43;;;;;;;;;;5105582;28;20205;-72
2021/05/17 12:04:15;;;;;;;6.27;0.77;;;;;;;;;;5098435;28;20312;-72
2021/05/17 12:06:44;;;;;;;2.37;0.50;;;;;;;;;;5108064;28;20296;-72
2021/05/17 12:09:12;;;;;;;0.67;0.33;;;;;;;;;;5102489;28;20565;-72
2021/05/17 12:11:50;;;;;;;10.00;0.70;;;;;;;;;;5099733;28;20288;-71
2021/05/17 12:14:18;;;;;;;2.60;0.70;;;;;;;;;;5103169;28;20207;-72
2021/05/17 12:16:45;;;;;;;2.30;0.87;;;;;;;;;;5098174;28;20237;-71
2021/05/17 12:19:14;;;;;;;0.80;0.43;;;;;;;;;;5102409;28;20236;-72
2021/05/17 12:21:42;;;;;;;3.20;1.37;;;;;;;;;;5098142;28;20227;-71
2021/05/17 12:24:23;;;;;;;2.30;0.90;;;;;;;;;;5097674;28;20209;-71
2021/05/17 12:26:53;;;;;;;1.20;0.60;;;;;;;;;;5106268;28;20232;-71
2021/05/17 12:29:21;;;;;;;1.87;0.70;;;;;;;;;;5107032;28;20198;-72
2021/05/17 12:31:48;;;;;;;1.90;1.33;;;;;;;;;;5106763;28;20265;-73
2021/05/17 12:34:17;;;;;;;1.70;0.50;;;;;;;;;;5108754;28;20602;-72
2021/05/17 12:36:45;;;;;;;2.30;0.70;;;;;;;;;;5097590;28;20282;-73
2021/05/17 12:39:16;;;;;;;3.40;1.10;;;;;;;;;;5096594;28;20232;-73
2021/05/17 12:41:46;;;;;;;1.67;0.47;;;;;;;;;;5097294;28;20233;-73
2021/05/17 12:44:32;;;;;;;2.30;0.70;;;;;;;;;;5097410;28;20601;-72
2021/05/17 12:47:06;;;;;;;2.17;0.53;;;;;;;;;;5110845;28;20257;-73
2021/05/17 12:49:46;;;;;;;1.30;0.60;;;;;;;;;;5118100;28;20286;-73
2021/05/17 12:52:28;;;;;;;1.23;0.50;;;;;;;;;;5116640;28;20263;-73
2021/05/17 12:55:28;;;;;;;0.63;0.50;;;;;;;;;;5102561;28;20300;-71
2021/05/17 12:57:57;;;;;;;4.73;0.80;;;;;;;;;;5061947;28;20236;-70
2021/05/17 13:00:36;;;;;;;3.77;0.60;;;;;;;;;;5055291;28;20560;-70
2021/05/17 13:03:08;;;;;;;1.37;0.80;;;;;;;;;;5081667;28;20301;-72
2021/05/17 13:06:09;;;;;;;1.20;0.60;;;;;;;;;;5117582;28;20297;-72
2021/05/17 13:08:51;;;;;;;2.10;0.60;;;;;;;;;;5042520;28;20638;-73
2021/05/17 13:11:33;;;;;;;2.27;0.70;;;;;;;;;;5045996;28;20225;-74
2021/05/17 13:14:04;;;;;;;1.03;0.80;;;;;;;;;;5073444;28;20331;-74
2021/05/17 13:16:36;;;;;;;1.67;0.77;;;;;;;;;;5100115;28;20198;-72
2021/05/17 13:22:02;;;;;;;1.20;0.40;;;;;;;;;;5094165;28;20296;-71
2021/05/17 13:30:10;;;;;;;3.70;0.70;;;;;;;;;;5104871;28;20201;-71
2021/05/17 13:32:40;;;;;;;1.67;0.60;;;;;;;;;;5097177;28;20312;-71
2021/05/17 13:35:09;;;;;;;1.53;0.90;;;;;;;;;;5106095;28;20307;-71
2021/05/17 13:37:37;;;;;;;2.30;0.67;;;;;;;;;;5101027;28;20241;-71
2021/05/17 13:40:05;;;;;;;0.87;0.70;;;;;;;;;;5096850;28;20292;-71
2021/05/17 13:42:34;;;;;;;2.00;0.70;;;;;;;;;;5097043;28;20659;-71
2021/05/17 13:45:01;;;;;;;2.33;0.53;;;;;;;;;;5100017;28;20324;-71
2021/05/17 13:47:29;;;;;;;2.00;0.63;;;;;;;;;;5104778;28;20259;-71
2021/05/17 13:49:57;;;;;;;1.93;0.90;;;;;;;;;;5097174;28;20229;-71
2021/05/17 13:52:24;;;;;;;1.30;0.57;;;;;;;;;;5099693;28;20618;-72
2021/05/17 13:54:52;;;;;;;1.00;0.80;;;;;;;;;;5100784;28;20298;-70
2021/05/17 13:57:19;;;;;;;2.63;0.73;;;;;;;;;;5117162;28;20728;-70
2021/05/17 13:59:48;;;;;;;0.70;0.57;;;;;;;;;;5117477;28;20216;-71
2021/05/17 14:02:16;;;;;;;1.70;0.60;;;;;;;;;;5107278;28;20261;-70
2021/05/17 14:04:43;;;;;;;0.67;0.40;;;;;;;;;;5097117;28;20222;-71
2021/05/17 14:07:12;;;;;;;0.90;0.73;;;;;;;;;;5097098;28;20201;-71
2021/05/17 14:09:40;;;;;;;2.10;0.60;;;;;;;;;;5103458;28;20204;-71
2021/05/17 14:12:11;;;;;;;1.77;0.93;;;;;;;;;;5110267;28;20683;-71
2021/05/17 14:14:39;;;;;;;1.37;1.10;;;;;;;;;;5096862;28;20230;-71
2021/05/17 14:17:06;;;;;;;2.03;1.03;;;;;;;;;;5096642;28;20233;-71
2021/05/17 14:19:34;;;;;;;3.53;0.80;;;;;;;;;;5097198;28;20241;-72
2021/05/17 14:22:02;;;;;;;2.07;0.70;;;;;;;;;;5101707;28;20734;-71
2021/05/17 14:24:32;;;;;;;1.10;0.63;;;;;;;;;;5100280;28;20256;-70
2021/05/17 14:26:59;;;;;;;2.53;0.87;;;;;;;;;;5096374;28;20209;-71
2021/05/17 14:29:27;;;;;;;0.97;0.70;;;;;;;;;;5096546;28;20254;-71
2021/05/17 14:31:55;;;;;;;2.33;0.77;;;;;;;;;;5096927;28;20237;-71
2021/05/17 14:34:22;;;;;;;2.13;0.70;;;;;;;;;;5100624;28;20261;-71
2021/05/17 14:36:50;;;;;;;1.43;0.83;;;;;;;;;;5110443;28;20323;-71
2021/05/17 14:39:17;;;;;;;1.20;0.87;;;;;;;;;;5099940;28;20205;-71
2021/05/17 14:41:46;;;;;;;2.17;1.07;;;;;;;;;;5100290;28;20205;-71
2021/05/17 14:44:13;;;;;;;3.33;0.90;;;;;;;;;;5099889;28;20233;-71
2021/05/17 14:46:41;;;;;;;5.07;0.97;;;;;;;;;;5101029;28;20316;-71
2021/05/17 14:49:08;;;;;;;3.90;1.10;;;;;;;;;;5100201;28;20292;-72
2021/05/17 14:51:47;;;;;;;1.47;1.00;;;;;;;;;;5100371;28;20205;-71
2021/05/17 14:54:15;;;;;;;2.63;1.30;;;;;;;;;;5111357;28;20244;-71
2021/05/17 14:56:42;;;;;;;2.47;1.03;;;;;;;;;;5100019;28;20296;-71
2021/05/17 14:59:11;;;;;;;1.67;0.90;;;;;;;;;;5100095;28;20215;-71
2021/05/17 15:01:38;;;;;;;0.93;0.67;;;;;;;;;;5099718;28;20293;-73
2021/05/17 15:04:06;;;;;;;2.43;0.70;;;;;;;;;;5099942;28;20728;-73
2021/05/17 15:06:34;;;;;;;0.83;0.60;;;;;;;;;;5099435;28;20252;-73
2021/05/17 15:09:01;;;;;;;2.73;0.60;;;;;;;;;;5099537;28;20289;-73
2021/05/17 15:11:29;;;;;;;5.10;2.17;;;;;;;;;;5099267;28;20233;-73
2021/05/17 15:13:56;;;;;;;2.07;1.10;;;;;;;;;;5115997;28;20719;-73
2021/05/17 15:16:27;;;;;;;1.10;0.40;;;;;;;;;;5119997;28;20696;-73
2021/05/17 15:18:55;;;;;;;1.27;0.30;;;;;;;;;;5119815;28;20602;-73